الصفحة الرئيسية
METAR-TAF:

METAR-TAF

مطار :

Mar del Plata, الأرجنتين

دائرة عرض: 37-56S, خط طول: 057-35W, ارتفاع: 18 متر

مراقبة الطقس الحالي

تاريخ ووقت الإصدار 34 دقيقة قبل الساعة 09:00UTC
ريح 10 عقدة من الشرق/الجنوب الشرقي
درجة الحرارة 5°درجة مئوية
الرطوبة 81%
ضغط 1028 hPa
الرؤية 10 كم أو أكثر
غيوم مفككة على ارتفاع 2100 قدم

METAR: SAZM 170900Z 11010KT 9999 BKN021 05/02 Q1028

زمن: 06:34 (09:34 UTC)

توقعات

تاريخ ووقت الإصدار 4ساعات و 34 دقيقة قبل الساعة 05:00UTC
التوقعات صالحة من17 الساعة 06 UTC إلى 18 الساعة 06 UTC
ريح 10 عقدة من الشرق/الجنوب الشرقي
الرؤية: 9000 متر
غيوم مفككة على ارتفاع 2000 قدم
أصبح
من 17 الساعة 12 UTC إلى 17 الساعة 14 UTC
ريح 15 عقدة من الشرق
الرؤية 10 كم أو أكثر
غيوم متفرقة على ارتفاع 2000 قدم
أصبح
من 17 الساعة 22 UTC إلى 17 الساعة 24 UTC
الرؤية: 7000 متر
غيوم مفككة على ارتفاع 1500 قدم
ملبد بالغيوم على ارتفاع 5000 قدم
مطر

TAF: SAZM 170500Z 1706/1806 11010KT 9000 BKN020 TX10/1718Z TN04/1710Z BECMG 1712/1714 09015KT 9999 SCT020 BECMG 1722/1724 7000 RA BKN015 OVC050

أرصاد الطقس والتوقعات من أكثر من 4000 مطار (تقارير الطقس للمطار METAR والتنبؤ بالطقس بالمطارTAF).

المحطات المتاحة هي النقط الصفراء والحمراء على الخريطة.

حرك المؤشر فوق النقطة لمعرفة اسم المحطة.

ثم انقر لمعرفة أرصاد وتوقعات الطقس.

لتغيير الخارطة: اضغط على الأزرار الخضراء مع رمز الصليب الأسود للتكبير. على الزر الأخضر مع شرطة للتصغير، أو على الأسهم الخضراء للخرائط المجاورة.


METAR-TAF: